createdAt,value
2022-11-16T00:00:17.798Z,20.53
2022-11-16T00:04:19.499Z,19.30
2022-11-16T00:08:21.319Z,21.97
2022-11-16T00:12:22.963Z,20.53
2022-11-16T00:16:24.850Z,21.53
2022-11-16T00:20:26.513Z,19.77
2022-11-16T00:24:28.199Z,18.53
2022-11-16T00:28:30.057Z,18.10
2022-11-16T00:32:32.117Z,23.40
2022-11-16T00:36:33.785Z,16.70
2022-11-16T00:40:35.483Z,20.17
2022-11-16T00:44:38.736Z,18.23
2022-11-16T00:48:40.526Z,21.80
2022-11-16T00:52:42.252Z,24.90
2022-11-16T00:56:43.881Z,24.63
2022-11-16T01:00:46.190Z,26.53
2022-11-16T01:04:47.850Z,17.33
2022-11-16T01:08:49.969Z,18.73
2022-11-16T01:12:53.148Z,15.90
2022-11-16T01:16:55.201Z,15.33
2022-11-16T01:20:56.889Z,20.27
2022-11-16T01:24:58.598Z,15.83
2022-11-16T01:29:00.387Z,17.90
2022-11-16T01:33:02.096Z,15.20
2022-11-16T01:37:03.899Z,14.40
2022-11-16T01:41:05.916Z,13.73
2022-11-16T01:45:16.912Z,18.83
2022-11-16T01:49:22.448Z,16.07
2022-11-16T01:53:24.975Z,14.33
2022-11-16T01:57:32.690Z,11.63
2022-11-16T02:01:34.393Z,13.03
2022-11-16T02:05:48.226Z,15.37
2022-11-16T02:10:13.601Z,12.83
2022-11-16T02:14:33.845Z,12.87
2022-11-16T02:18:45.445Z,13.23
2022-11-16T02:23:15.516Z,13.23
2022-11-16T02:28:11.060Z,10.97
2022-11-16T02:32:31.576Z,12.80
2022-11-16T02:36:35.515Z,13.07
2022-11-16T02:40:41.170Z,12.33
2022-11-16T02:44:47.081Z,14.63
2022-11-16T02:48:53.606Z,18.00
2022-11-16T02:52:55.761Z,12.30
2022-11-16T02:57:03.538Z,13.07
2022-11-16T03:01:08.456Z,11.20
2022-11-16T03:05:17.088Z,13.80
2022-11-16T03:09:24.347Z,11.80
2022-11-16T03:13:30.426Z,14.00
2022-11-16T03:17:44.738Z,11.17
2022-11-16T03:21:59.370Z,14.43
2022-11-16T03:26:06.645Z,13.67
2022-11-16T03:30:23.328Z,14.13
2022-11-16T03:34:31.794Z,14.27
2022-11-16T03:38:36.730Z,12.40
2022-11-16T03:42:39.776Z,12.47
2022-11-16T03:46:43.272Z,14.50
2022-11-16T03:50:45.537Z,13.80
2022-11-16T03:54:47.256Z,11.77
2022-11-16T03:58:49.122Z,11.93
2022-11-16T04:02:50.827Z,14.97
2022-11-16T04:07:10.958Z,14.70
2022-11-16T04:11:35.125Z,15.47
2022-11-16T04:16:01.551Z,12.40
2022-11-16T04:20:23.489Z,12.67
2022-11-16T04:24:28.852Z,16.37
2022-11-16T04:28:34.490Z,12.43
2022-11-16T04:32:55.105Z,13.47
2022-11-16T04:37:15.675Z,14.07
2022-11-16T04:41:36.113Z,12.07
2022-11-16T04:45:56.484Z,12.33
2022-11-16T04:49:58.145Z,11.73
2022-11-16T04:53:59.888Z,15.97
2022-11-16T04:58:02.276Z,16.03
2022-11-16T05:02:09.696Z,17.40
2022-11-16T05:06:11.360Z,14.77
2022-11-16T05:10:14.324Z,12.57
2022-11-16T05:14:15.977Z,12.97
2022-11-16T05:18:17.705Z,12.27
2022-11-16T05:22:19.418Z,13.80
2022-11-16T05:26:21.105Z,13.20
2022-11-16T05:30:22.907Z,15.17
2022-11-16T05:34:24.892Z,14.90
2022-11-16T05:38:26.609Z,14.17
2022-11-16T05:42:28.253Z,13.27
2022-11-16T05:46:29.961Z,14.70
2022-11-16T05:50:31.681Z,12.87
2022-11-16T05:54:34.031Z,12.57
2022-11-16T05:58:36.065Z,14.13
2022-11-16T06:02:38.039Z,15.07
2022-11-16T06:06:44.681Z,13.73
2022-11-16T06:10:46.358Z,15.97
2022-11-16T06:14:48.049Z,14.17
2022-11-16T06:18:49.830Z,16.60
2022-11-16T06:22:51.494Z,15.77
2022-11-16T06:26:53.183Z,14.80
2022-11-16T06:30:54.927Z,15.60
2022-11-16T06:34:56.637Z,18.03
2022-11-16T06:39:00.941Z,16.13
2022-11-16T06:43:02.683Z,22.43
2022-11-16T06:47:04.480Z,25.23
2022-11-16T06:51:06.315Z,21.53
2022-11-16T06:55:08.461Z,24.03
2022-11-16T06:59:10.105Z,25.53
2022-11-16T07:03:12.025Z,27.73
2022-11-16T07:07:16.041Z,34.60
2022-11-16T07:11:17.991Z,27.60
2022-11-16T07:15:19.895Z,25.73
2022-11-16T07:19:21.602Z,26.93
2022-11-16T07:23:24.276Z,26.87
2022-11-16T07:27:26.066Z,26.80
2022-11-16T07:31:28.156Z,32.50
2022-11-16T07:35:29.933Z,31.13
2022-11-16T07:39:31.664Z,26.47
2022-11-16T07:43:35.226Z,26.70
2022-11-16T07:47:38.028Z,27.77
2022-11-16T07:51:39.685Z,23.07
2022-11-16T07:55:41.380Z,24.00
2022-11-16T07:59:43.128Z,22.73
2022-11-16T08:03:46.279Z,25.37
2022-11-16T08:07:48.186Z,25.97
2022-11-16T08:11:51.272Z,25.87
2022-11-16T08:15:54.886Z,22.57
2022-11-16T08:19:56.635Z,25.80
2022-11-16T08:23:59.023Z,25.90
2022-11-16T08:28:00.879Z,23.90
2022-11-16T08:32:02.756Z,30.57
2022-11-16T08:36:14.354Z,24.13
2022-11-16T08:40:16.618Z,26.90
2022-11-16T08:44:18.367Z,27.67
2022-11-16T08:48:20.377Z,24.43
2022-11-16T08:52:22.110Z,24.87
2022-11-16T08:56:27.094Z,26.40
2022-11-16T09:00:28.914Z,26.80
2022-11-16T09:04:36.747Z,24.27
2022-11-16T09:08:44.514Z,22.10
2022-11-16T09:12:46.234Z,23.80
2022-11-16T09:16:48.580Z,23.17
2022-11-16T09:20:50.592Z,24.73
2022-11-16T09:24:52.391Z,23.90
2022-11-16T09:29:03.153Z,24.23
2022-11-16T09:33:04.855Z,23.67
2022-11-16T09:37:08.032Z,23.80
2022-11-16T09:41:21.937Z,27.07
2022-11-16T09:45:51.383Z,20.77
2022-11-16T09:49:59.859Z,18.90
2022-11-16T09:54:13.475Z,16.83
2022-11-16T09:58:21.353Z,11.17
2022-11-16T10:02:28.298Z,11.83
2022-11-16T10:06:47.570Z,12.13
2022-11-16T10:11:19.480Z,10.10
2022-11-16T10:15:48.515Z,9.47
2022-11-16T10:19:50.171Z,8.63
2022-11-16T10:24:09.911Z,6.30
2022-11-16T10:28:36.451Z,3.03
2022-11-16T10:32:46.918Z,5.20
2022-11-16T10:36:48.753Z,3.40
2022-11-16T10:40:57.926Z,1.90
2022-11-16T10:45:05.977Z,4.53
2022-11-16T10:49:40.472Z,1.73
2022-11-16T10:53:46.553Z,3.47
2022-11-16T10:58:05.803Z,4.90
2022-11-16T11:02:31.295Z,4.93
2022-11-16T11:06:33.389Z,6.60
2022-11-16T11:10:38.674Z,4.03
2022-11-16T11:14:40.511Z,6.67
2022-11-16T11:18:42.456Z,22.67
2022-11-16T11:22:58.288Z,2.63
2022-11-16T11:27:00.260Z,3.27
2022-11-16T11:31:32.391Z,4.97
2022-11-16T11:35:34.380Z,2.70
2022-11-16T11:39:37.571Z,7.23
2022-11-16T11:43:39.795Z,3.40
2022-11-16T11:48:02.974Z,3.63
2022-11-16T11:52:19.264Z,3.73
2022-11-16T11:56:21.104Z,3.07
2022-11-16T12:00:23.866Z,2.30
2022-11-16T12:04:59.776Z,5.10
2022-11-16T12:09:01.579Z,2.47
2022-11-16T12:13:38.324Z,2.20
2022-11-16T12:17:46.127Z,2.88
2022-11-16T12:21:59.623Z,2.10
2022-11-16T12:26:22.514Z,2.70
2022-11-16T12:30:24.821Z,14.27
2022-11-16T12:34:48.369Z,3.60
2022-11-16T12:38:59.838Z,6.50
2022-11-16T12:43:19.636Z,2.37
2022-11-16T12:47:39.505Z,3.03
2022-11-16T12:51:57.166Z,2.47
2022-11-16T12:56:21.246Z,3.33
2022-11-16T13:00:23.003Z,2.53
2022-11-16T13:04:48.327Z,2.17
2022-11-16T13:09:02.258Z,2.03
2022-11-16T13:13:35.505Z,5.43
2022-11-16T13:17:38.487Z,2.80
2022-11-16T13:21:59.840Z,4.93
2022-11-16T13:26:23.741Z,1.92
2022-11-16T13:30:34.868Z,1.37
2022-11-16T13:34:40.076Z,3.83
2022-11-16T13:38:54.198Z,1.47
2022-11-16T13:43:11.380Z,2.95
2022-11-16T13:47:22.386Z,2.00
2022-11-16T13:51:24.650Z,2.00
2022-11-16T13:55:30.012Z,1.65
2022-11-16T13:59:34.784Z,1.75
2022-11-16T14:03:38.805Z,0.83
2022-11-16T14:07:49.932Z,3.67
2022-11-16T14:11:51.730Z,6.60
2022-11-16T14:16:22.676Z,2.75
2022-11-16T14:20:31.908Z,3.90
2022-11-16T14:25:02.553Z,4.20
2022-11-16T14:29:33.071Z,6.32
2022-11-16T14:33:37.334Z,6.80
2022-11-16T14:37:42.332Z,5.87
2022-11-16T14:41:46.491Z,3.53
2022-11-16T14:45:54.571Z,4.00
2022-11-16T14:49:57.058Z,3.67
2022-11-16T14:54:02.674Z,5.07
2022-11-16T14:58:10.199Z,8.55
2022-11-16T15:02:26.723Z,7.73
2022-11-16T15:06:32.214Z,7.23
2022-11-16T15:10:33.910Z,10.97
2022-11-16T15:14:41.542Z,8.90
2022-11-16T15:19:00.462Z,10.93
2022-11-16T15:23:04.281Z,18.40
2022-11-16T15:27:10.702Z,30.27
2022-11-16T15:31:14.958Z,45.87
2022-11-16T15:35:33.170Z,35.70
2022-11-16T15:39:36.731Z,26.87
2022-11-16T15:44:01.451Z,28.77
2022-11-16T15:48:24.983Z,21.17
2022-11-16T15:52:43.810Z,20.27
2022-11-16T15:56:45.532Z,18.17
2022-11-16T16:00:48.744Z,18.03
2022-11-16T16:04:50.937Z,11.63
2022-11-16T16:09:05.054Z,9.50
2022-11-16T16:13:25.236Z,14.80
2022-11-16T16:17:31.027Z,11.20
2022-11-16T16:21:45.140Z,11.77
2022-11-16T16:25:50.589Z,11.73
2022-11-16T16:29:54.508Z,20.17
2022-11-16T16:33:56.288Z,13.90
2022-11-16T16:38:01.006Z,13.83
2022-11-16T16:42:03.103Z,19.63
2022-11-16T16:46:05.109Z,15.13
2022-11-16T16:50:07.211Z,13.53
2022-11-16T16:54:14.092Z,26.23
2022-11-16T16:58:16.372Z,14.17
2022-11-16T17:02:18.930Z,9.47
2022-11-16T17:06:20.713Z,11.30
2022-11-16T17:10:23.376Z,9.43
2022-11-16T17:14:25.322Z,14.73
2022-11-16T17:18:27.150Z,13.83
2022-11-16T17:22:29.011Z,12.63
2022-11-16T17:26:30.818Z,16.63
2022-11-16T17:30:32.530Z,6.83
2022-11-16T17:35:32.580Z,6.63
2022-11-16T17:39:35.141Z,52.63
2022-11-16T17:43:37.139Z,12.07
2022-11-16T17:47:39.216Z,8.77
2022-11-16T17:51:41.151Z,6.97
2022-11-16T17:55:42.815Z,7.67
2022-11-16T17:59:44.805Z,14.63
2022-11-16T18:03:46.527Z,19.50
2022-11-16T18:07:48.257Z,9.73
2022-11-16T18:11:57.529Z,5.47
2022-11-16T18:16:12.988Z,5.90
2022-11-16T18:20:15.715Z,17.57
2022-11-16T18:24:17.561Z,21.87
2022-11-16T18:28:19.660Z,19.50
2022-11-16T18:32:21.412Z,27.83
2022-11-16T18:36:23.128Z,8.13
2022-11-16T18:40:24.847Z,16.53
2022-11-16T18:44:26.681Z,16.93
2022-11-16T18:48:28.759Z,13.20
2022-11-16T18:52:30.659Z,98.53
2022-11-16T18:56:32.428Z,37.10
2022-11-16T19:00:34.176Z,13.93
2022-11-16T19:04:36.225Z,14.53
2022-11-16T19:08:39.307Z,19.07
2022-11-16T19:12:41.061Z,13.07
2022-11-16T19:16:52.510Z,18.40
2022-11-16T19:21:07.218Z,19.70
2022-11-16T19:25:09.518Z,9.83
2022-11-16T19:29:11.201Z,5.30
2022-11-16T19:33:18.262Z,4.80
2022-11-16T19:37:20.060Z,38.00
2022-11-16T19:41:22.829Z,16.90
2022-11-16T19:45:24.540Z,19.10
2022-11-16T19:49:26.452Z,17.03
2022-11-16T19:53:28.310Z,22.37
2022-11-16T19:57:29.989Z,17.63
2022-11-16T20:01:31.810Z,16.87
2022-11-16T20:05:33.757Z,17.13
2022-11-16T20:09:35.533Z,19.47
2022-11-16T20:13:38.447Z,23.53
2022-11-16T20:17:40.106Z,38.67
2022-11-16T20:21:43.201Z,45.73
2022-11-16T20:25:44.940Z,43.33
2022-11-16T20:29:46.696Z,75.43
2022-11-16T20:33:56.598Z,90.47
2022-11-16T20:37:59.547Z,45.03
2022-11-16T20:42:01.253Z,44.83
2022-11-16T20:46:03.156Z,62.83
2022-11-16T20:50:05.299Z,27.07
2022-11-16T20:54:07.189Z,41.17
2022-11-16T20:58:08.935Z,48.40
2022-11-16T21:02:11.764Z,40.07
2022-11-16T21:06:14.700Z,47.40
2022-11-16T21:10:19.915Z,62.93
2022-11-16T21:14:22.958Z,58.53
2022-11-16T21:18:30.355Z,38.93
2022-11-16T21:22:32.933Z,57.93
2022-11-16T21:26:35.157Z,85.23
2022-11-16T21:30:36.922Z,45.57
2022-11-16T21:34:40.253Z,51.90
2022-11-16T21:38:43.089Z,24.97
2022-11-16T21:42:44.847Z,66.63
2022-11-16T21:46:46.870Z,48.50
2022-11-16T21:50:49.640Z,52.07
2022-11-16T21:54:56.831Z,58.20
2022-11-16T21:58:58.784Z,84.27
2022-11-16T22:03:00.629Z,57.67
2022-11-16T22:07:20.918Z,45.60
2022-11-16T22:11:22.733Z,19.80
2022-11-16T22:15:24.419Z,59.60
2022-11-16T22:19:26.123Z,26.30
2022-11-16T22:23:28.561Z,60.90
2022-11-16T22:27:30.384Z,59.83
2022-11-16T22:31:33.002Z,57.70
2022-11-16T22:35:36.550Z,39.47
2022-11-16T22:39:38.262Z,50.73
2022-11-16T22:43:40.218Z,21.30
2022-11-16T22:47:42.243Z,33.87
2022-11-16T22:51:44.077Z,19.77
2022-11-16T22:55:46.110Z,12.80
2022-11-16T22:59:47.820Z,15.20
2022-11-16T23:03:50.196Z,46.37
2022-11-16T23:07:54.929Z,19.47
2022-11-16T23:12:14.925Z,29.10
2022-11-16T23:16:16.629Z,66.10
2022-11-16T23:20:42.420Z,33.87
2022-11-16T23:25:20.343Z,71.33
2022-11-16T23:29:22.079Z,35.13
2022-11-16T23:33:43.750Z,26.13
2022-11-16T23:37:59.393Z,52.60
2022-11-16T23:42:20.130Z,28.10
2022-11-16T23:46:21.884Z,73.03
2022-11-16T23:50:23.597Z,100.50
2022-11-16T23:54:25.600Z,29.50
2022-11-16T23:58:27.247Z,64.50
